sensor_id;sensor_type;location;lat;lon;timestamp;P1;durP1;ratioP1;P2;durP2;ratioP2
12535;SDS011;6334;48.696;2.114;2023-06-24T00:02:19;3.73;;;3.43;;
12535;SDS011;6334;48.696;2.114;2023-06-24T00:04:50;4.07;;;3.77;;
12535;SDS011;6334;48.696;2.114;2023-06-24T00:07:20;4.47;;;3.90;;
12535;SDS011;6334;48.696;2.114;2023-06-24T00:09:50;4.07;;;3.77;;
12535;SDS011;6334;48.696;2.114;2023-06-24T00:12:21;4.20;;;3.83;;
12535;SDS011;6334;48.696;2.114;2023-06-24T00:14:51;5.10;;;4.00;;
12535;SDS011;6334;48.696;2.114;2023-06-24T00:17:22;4.27;;;3.87;;
12535;SDS011;6334;48.696;2.114;2023-06-24T00:19:52;3.97;;;3.67;;
12535;SDS011;6334;48.696;2.114;2023-06-24T00:22:23;4.63;;;4.10;;
12535;SDS011;6334;48.696;2.114;2023-06-24T00:24:53;4.43;;;3.90;;
12535;SDS011;6334;48.696;2.114;2023-06-24T00:27:24;5.03;;;3.60;;
12535;SDS011;6334;48.696;2.114;2023-06-24T00:29:54;4.40;;;3.60;;
12535;SDS011;6334;48.696;2.114;2023-06-24T00:32:25;4.23;;;3.87;;
12535;SDS011;6334;48.696;2.114;2023-06-24T00:34:55;4.37;;;3.97;;
12535;SDS011;6334;48.696;2.114;2023-06-24T00:37:25;4.20;;;3.80;;
12535;SDS011;6334;48.696;2.114;2023-06-24T00:39:56;5.20;;;4.00;;
12535;SDS011;6334;48.696;2.114;2023-06-24T00:42:26;5.30;;;3.77;;
12535;SDS011;6334;48.696;2.114;2023-06-24T00:44:57;3.97;;;3.60;;
12535;SDS011;6334;48.696;2.114;2023-06-24T00:47:27;4.90;;;3.90;;
12535;SDS011;6334;48.696;2.114;2023-06-24T00:49:58;4.23;;;3.93;;
12535;SDS011;6334;48.696;2.114;2023-06-24T00:52:28;4.53;;;4.00;;
12535;SDS011;6334;48.696;2.114;2023-06-24T00:54:59;4.87;;;3.97;;
12535;SDS011;6334;48.696;2.114;2023-06-24T00:57:29;5.43;;;4.27;;
12535;SDS011;6334;48.696;2.114;2023-06-24T01:00:00;4.80;;;4.10;;
12535;SDS011;6334;48.696;2.114;2023-06-24T01:02:30;6.23;;;4.37;;
12535;SDS011;6334;48.696;2.114;2023-06-24T01:05:01;4.63;;;4.07;;
12535;SDS011;6334;48.696;2.114;2023-06-24T01:07:31;4.77;;;4.10;;
12535;SDS011;6334;48.696;2.114;2023-06-24T01:10:02;5.77;;;4.40;;
12535;SDS011;6334;48.696;2.114;2023-06-24T01:12:35;4.40;;;4.00;;
12535;SDS011;6334;48.696;2.114;2023-06-24T01:15:08;4.30;;;3.90;;
12535;SDS011;6334;48.696;2.114;2023-06-24T01:20:23;4.40;;;4.00;;
12535;SDS011;6334;48.696;2.114;2023-06-24T01:26:37;5.00;;;4.50;;
12535;SDS011;6334;48.696;2.114;2023-06-24T01:34:06;4.23;;;3.83;;
12535;SDS011;6334;48.696;2.114;2023-06-24T01:36:40;5.60;;;4.20;;
12535;SDS011;6334;48.696;2.114;2023-06-24T01:39:10;4.43;;;4.03;;
12535;SDS011;6334;48.696;2.114;2023-06-24T01:41:42;4.70;;;4.00;;
12535;SDS011;6334;48.696;2.114;2023-06-24T01:44:13;5.53;;;4.40;;
12535;SDS011;6334;48.696;2.114;2023-06-24T01:46:42;5.37;;;3.90;;
12535;SDS011;6334;48.696;2.114;2023-06-24T01:49:13;5.97;;;4.40;;
12535;SDS011;6334;48.696;2.114;2023-06-24T01:51:43;4.70;;;3.83;;
12535;SDS011;6334;48.696;2.114;2023-06-24T01:54:14;5.37;;;4.20;;
12535;SDS011;6334;48.696;2.114;2023-06-24T01:56:44;4.83;;;3.90;;
12535;SDS011;6334;48.696;2.114;2023-06-24T01:59:14;4.60;;;4.03;;
12535;SDS011;6334;48.696;2.114;2023-06-24T02:01:44;4.43;;;3.90;;
12535;SDS011;6334;48.696;2.114;2023-06-24T02:04:15;5.17;;;4.13;;
12535;SDS011;6334;48.696;2.114;2023-06-24T02:06:45;5.87;;;4.10;;
12535;SDS011;6334;48.696;2.114;2023-06-24T02:09:16;6.47;;;4.40;;
12535;SDS011;6334;48.696;2.114;2023-06-24T02:11:46;4.53;;;4.13;;
12535;SDS011;6334;48.696;2.114;2023-06-24T02:14:17;4.73;;;4.20;;
12535;SDS011;6334;48.696;2.114;2023-06-24T02:16:47;4.30;;;3.90;;
12535;SDS011;6334;48.696;2.114;2023-06-24T02:19:18;5.40;;;4.63;;
12535;SDS011;6334;48.696;2.114;2023-06-24T02:21:49;7.77;;;3.97;;
12535;SDS011;6334;48.696;2.114;2023-06-24T02:24:20;6.97;;;4.53;;
12535;SDS011;6334;48.696;2.114;2023-06-24T02:26:50;4.70;;;4.20;;
12535;SDS011;6334;48.696;2.114;2023-06-24T02:29:21;6.43;;;4.40;;
12535;SDS011;6334;48.696;2.114;2023-06-24T02:31:51;5.23;;;4.20;;
12535;SDS011;6334;48.696;2.114;2023-06-24T02:34:24;4.57;;;3.90;;
12535;SDS011;6334;48.696;2.114;2023-06-24T02:36:55;5.10;;;3.87;;
12535;SDS011;6334;48.696;2.114;2023-06-24T02:39:25;6.37;;;4.30;;
12535;SDS011;6334;48.696;2.114;2023-06-24T02:41:56;5.67;;;4.60;;
12535;SDS011;6334;48.696;2.114;2023-06-24T02:44:26;5.33;;;4.13;;
12535;SDS011;6334;48.696;2.114;2023-06-24T02:46:56;5.43;;;4.07;;
12535;SDS011;6334;48.696;2.114;2023-06-24T02:49:27;4.47;;;4.07;;
12535;SDS011;6334;48.696;2.114;2023-06-24T02:51:57;4.53;;;4.13;;
12535;SDS011;6334;48.696;2.114;2023-06-24T02:54:28;4.67;;;4.20;;
12535;SDS011;6334;48.696;2.114;2023-06-24T02:56:59;5.77;;;4.13;;
12535;SDS011;6334;48.696;2.114;2023-06-24T02:59:29;5.37;;;4.20;;
12535;SDS011;6334;48.696;2.114;2023-06-24T03:01:59;5.83;;;4.40;;
12535;SDS011;6334;48.696;2.114;2023-06-24T03:04:30;5.13;;;4.37;;
12535;SDS011;6334;48.696;2.114;2023-06-24T03:07:00;4.47;;;4.07;;
12535;SDS011;6334;48.696;2.114;2023-06-24T03:09:35;4.60;;;4.10;;
12535;SDS011;6334;48.696;2.114;2023-06-24T03:12:02;6.07;;;4.17;;
12535;SDS011;6334;48.696;2.114;2023-06-24T03:14:32;4.40;;;4.03;;
12535;SDS011;6334;48.696;2.114;2023-06-24T03:17:02;5.13;;;4.40;;
12535;SDS011;6334;48.696;2.114;2023-06-24T03:19:33;6.67;;;4.50;;
12535;SDS011;6334;48.696;2.114;2023-06-24T03:22:03;4.63;;;4.00;;
12535;SDS011;6334;48.696;2.114;2023-06-24T03:24:34;7.73;;;4.40;;
12535;SDS011;6334;48.696;2.114;2023-06-24T03:27:04;4.63;;;4.10;;
12535;SDS011;6334;48.696;2.114;2023-06-24T03:29:35;5.83;;;4.57;;
12535;SDS011;6334;48.696;2.114;2023-06-24T03:32:05;5.90;;;4.57;;
12535;SDS011;6334;48.696;2.114;2023-06-24T03:34:36;5.13;;;4.27;;
12535;SDS011;6334;48.696;2.114;2023-06-24T03:37:06;5.33;;;4.23;;
12535;SDS011;6334;48.696;2.114;2023-06-24T03:39:37;4.30;;;3.90;;
12535;SDS011;6334;48.696;2.114;2023-06-24T03:42:07;5.67;;;4.40;;
12535;SDS011;6334;48.696;2.114;2023-06-24T03:44:38;4.93;;;4.07;;
12535;SDS011;6334;48.696;2.114;2023-06-24T03:47:08;6.73;;;5.03;;
12535;SDS011;6334;48.696;2.114;2023-06-24T03:49:39;6.47;;;4.53;;
12535;SDS011;6334;48.696;2.114;2023-06-24T03:52:09;5.97;;;4.60;;
12535;SDS011;6334;48.696;2.114;2023-06-24T03:54:39;7.30;;;4.30;;
12535;SDS011;6334;48.696;2.114;2023-06-24T03:57:10;4.77;;;4.17;;
12535;SDS011;6334;48.696;2.114;2023-06-24T03:59:40;4.93;;;4.20;;
12535;SDS011;6334;48.696;2.114;2023-06-24T04:02:11;5.20;;;4.10;;
12535;SDS011;6334;48.696;2.114;2023-06-24T04:04:41;4.37;;;3.80;;
12535;SDS011;6334;48.696;2.114;2023-06-24T04:07:12;4.43;;;4.03;;
12535;SDS011;6334;48.696;2.114;2023-06-24T04:09:42;5.93;;;4.30;;
12535;SDS011;6334;48.696;2.114;2023-06-24T04:12:13;5.20;;;4.23;;
12535;SDS011;6334;48.696;2.114;2023-06-24T04:14:43;5.10;;;4.50;;
12535;SDS011;6334;48.696;2.114;2023-06-24T04:17:14;6.00;;;4.33;;
12535;SDS011;6334;48.696;2.114;2023-06-24T04:19:44;5.10;;;4.57;;
12535;SDS011;6334;48.696;2.114;2023-06-24T04:22:14;5.30;;;4.20;;
12535;SDS011;6334;48.696;2.114;2023-06-24T04:24:45;6.83;;;4.40;;
12535;SDS011;6334;48.696;2.114;2023-06-24T04:27:15;4.60;;;3.83;;
12535;SDS011;6334;48.696;2.114;2023-06-24T04:29:46;4.93;;;4.30;;
12535;SDS011;6334;48.696;2.114;2023-06-24T04:32:16;5.33;;;4.20;;
12535;SDS011;6334;48.696;2.114;2023-06-24T04:34:47;5.80;;;4.20;;
12535;SDS011;6334;48.696;2.114;2023-06-24T04:37:17;6.60;;;4.53;;
12535;SDS011;6334;48.696;2.114;2023-06-24T04:39:48;4.93;;;4.00;;
12535;SDS011;6334;48.696;2.114;2023-06-24T04:42:18;4.20;;;3.80;;
12535;SDS011;6334;48.696;2.114;2023-06-24T04:44:49;5.60;;;4.50;;
12535;SDS011;6334;48.696;2.114;2023-06-24T04:47:19;5.63;;;4.60;;
12535;SDS011;6334;48.696;2.114;2023-06-24T04:49:50;7.07;;;4.20;;
12535;SDS011;6334;48.696;2.114;2023-06-24T04:52:20;6.13;;;4.50;;
12535;SDS011;6334;48.696;2.114;2023-06-24T04:54:50;6.60;;;4.50;;
12535;SDS011;6334;48.696;2.114;2023-06-24T04:57:25;5.93;;;4.17;;
12535;SDS011;6334;48.696;2.114;2023-06-24T04:59:57;5.00;;;4.13;;
12535;SDS011;6334;48.696;2.114;2023-06-24T05:02:27;4.50;;;4.10;;
12535;SDS011;6334;48.696;2.114;2023-06-24T05:04:58;4.77;;;4.27;;
12535;SDS011;6334;48.696;2.114;2023-06-24T05:07:28;5.93;;;4.47;;
12535;SDS011;6334;48.696;2.114;2023-06-24T05:09:59;6.33;;;4.10;;
12535;SDS011;6334;48.696;2.114;2023-06-24T05:12:29;7.20;;;4.80;;
12535;SDS011;6334;48.696;2.114;2023-06-24T05:14:59;5.17;;;4.43;;
12535;SDS011;6334;48.696;2.114;2023-06-24T05:17:30;5.53;;;4.40;;
12535;SDS011;6334;48.696;2.114;2023-06-24T05:20:00;6.70;;;4.57;;
12535;SDS011;6334;48.696;2.114;2023-06-24T05:22:31;5.00;;;4.50;;
12535;SDS011;6334;48.696;2.114;2023-06-24T05:25:01;4.90;;;4.40;;
12535;SDS011;6334;48.696;2.114;2023-06-24T05:27:32;5.47;;;4.40;;
12535;SDS011;6334;48.696;2.114;2023-06-24T05:30:02;7.83;;;4.70;;
12535;SDS011;6334;48.696;2.114;2023-06-24T05:32:33;4.73;;;4.23;;
12535;SDS011;6334;48.696;2.114;2023-06-24T05:35:03;4.63;;;4.20;;
12535;SDS011;6334;48.696;2.114;2023-06-24T05:37:34;4.70;;;4.10;;
12535;SDS011;6334;48.696;2.114;2023-06-24T05:40:04;4.67;;;4.20;;
12535;SDS011;6334;48.696;2.114;2023-06-24T05:42:35;6.93;;;4.60;;
12535;SDS011;6334;48.696;2.114;2023-06-24T05:45:05;5.33;;;4.17;;
12535;SDS011;6334;48.696;2.114;2023-06-24T05:47:36;8.20;;;4.43;;
12535;SDS011;6334;48.696;2.114;2023-06-24T05:50:06;4.43;;;4.03;;
12535;SDS011;6334;48.696;2.114;2023-06-24T05:52:37;5.87;;;4.43;;
12535;SDS011;6334;48.696;2.114;2023-06-24T05:55:07;6.00;;;4.40;;
12535;SDS011;6334;48.696;2.114;2023-06-24T05:57:38;5.23;;;3.90;;
12535;SDS011;6334;48.696;2.114;2023-06-24T06:00:08;4.50;;;4.10;;
12535;SDS011;6334;48.696;2.114;2023-06-24T06:02:39;5.73;;;4.07;;
12535;SDS011;6334;48.696;2.114;2023-06-24T06:05:09;5.20;;;4.40;;
12535;SDS011;6334;48.696;2.114;2023-06-24T06:07:40;6.13;;;3.90;;
12535;SDS011;6334;48.696;2.114;2023-06-24T06:10:10;5.47;;;4.40;;
12535;SDS011;6334;48.696;2.114;2023-06-24T06:12:41;5.50;;;4.27;;
12535;SDS011;6334;48.696;2.114;2023-06-24T06:15:11;5.13;;;4.10;;
12535;SDS011;6334;48.696;2.114;2023-06-24T06:17:42;4.97;;;4.40;;
12535;SDS011;6334;48.696;2.114;2023-06-24T06:20:12;5.50;;;4.30;;
12535;SDS011;6334;48.696;2.114;2023-06-24T06:22:43;4.90;;;3.90;;
12535;SDS011;6334;48.696;2.114;2023-06-24T06:25:13;6.13;;;4.27;;
12535;SDS011;6334;48.696;2.114;2023-06-24T06:27:44;7.33;;;4.20;;
12535;SDS011;6334;48.696;2.114;2023-06-24T06:30:15;5.27;;;4.40;;
12535;SDS011;6334;48.696;2.114;2023-06-24T06:32:46;5.93;;;4.60;;
12535;SDS011;6334;48.696;2.114;2023-06-24T06:35:16;4.93;;;4.27;;
12535;SDS011;6334;48.696;2.114;2023-06-24T06:37:47;4.63;;;4.17;;
12535;SDS011;6334;48.696;2.114;2023-06-24T06:40:20;4.60;;;4.13;;
12535;SDS011;6334;48.696;2.114;2023-06-24T06:42:50;4.60;;;4.10;;
12535;SDS011;6334;48.696;2.114;2023-06-24T06:45:21;6.17;;;3.83;;
12535;SDS011;6334;48.696;2.114;2023-06-24T06:47:51;5.47;;;4.40;;
12535;SDS011;6334;48.696;2.114;2023-06-24T06:50:22;5.77;;;4.27;;
12535;SDS011;6334;48.696;2.114;2023-06-24T06:52:52;7.10;;;4.50;;
12535;SDS011;6334;48.696;2.114;2023-06-24T06:55:23;4.97;;;3.83;;
12535;SDS011;6334;48.696;2.114;2023-06-24T06:57:53;6.20;;;4.60;;
12535;SDS011;6334;48.696;2.114;2023-06-24T07:00:24;6.50;;;4.67;;
12535;SDS011;6334;48.696;2.114;2023-06-24T07:02:54;5.40;;;4.20;;
12535;SDS011;6334;48.696;2.114;2023-06-24T07:05:24;4.70;;;4.13;;
12535;SDS011;6334;48.696;2.114;2023-06-24T07:07:55;6.63;;;4.17;;
12535;SDS011;6334;48.696;2.114;2023-06-24T07:10:25;4.77;;;4.07;;
12535;SDS011;6334;48.696;2.114;2023-06-24T07:12:56;4.57;;;4.10;;
12535;SDS011;6334;48.696;2.114;2023-06-24T07:15:26;4.60;;;4.20;;
12535;SDS011;6334;48.696;2.114;2023-06-24T07:17:57;5.83;;;4.37;;
12535;SDS011;6334;48.696;2.114;2023-06-24T07:20:28;4.40;;;4.00;;
12535;SDS011;6334;48.696;2.114;2023-06-24T07:22:59;5.87;;;4.07;;
12535;SDS011;6334;48.696;2.114;2023-06-24T07:25:29;4.73;;;3.97;;
12535;SDS011;6334;48.696;2.114;2023-06-24T07:28:01;4.30;;;3.90;;
12535;SDS011;6334;48.696;2.114;2023-06-24T07:30:32;4.40;;;4.10;;
12535;SDS011;6334;48.696;2.114;2023-06-24T07:33:02;5.53;;;4.40;;
12535;SDS011;6334;48.696;2.114;2023-06-24T07:35:33;6.27;;;4.43;;
12535;SDS011;6334;48.696;2.114;2023-06-24T07:38:03;4.43;;;3.90;;
12535;SDS011;6334;48.696;2.114;2023-06-24T07:40:34;4.10;;;3.70;;
12535;SDS011;6334;48.696;2.114;2023-06-24T07:43:04;4.13;;;3.77;;
12535;SDS011;6334;48.696;2.114;2023-06-24T07:45:35;4.10;;;3.70;;
12535;SDS011;6334;48.696;2.114;2023-06-24T07:48:05;6.17;;;4.53;;
12535;SDS011;6334;48.696;2.114;2023-06-24T07:50:38;4.50;;;3.93;;
12535;SDS011;6334;48.696;2.114;2023-06-24T07:53:06;4.77;;;4.00;;
12535;SDS011;6334;48.696;2.114;2023-06-24T07:55:36;5.90;;;4.40;;
12535;SDS011;6334;48.696;2.114;2023-06-24T07:58:07;4.67;;;4.10;;
12535;SDS011;6334;48.696;2.114;2023-06-24T08:00:37;4.60;;;3.90;;
12535;SDS011;6334;48.696;2.114;2023-06-24T08:03:08;4.30;;;3.93;;
12535;SDS011;6334;48.696;2.114;2023-06-24T08:05:38;5.53;;;3.93;;
12535;SDS011;6334;48.696;2.114;2023-06-24T08:08:09;5.23;;;4.20;;
12535;SDS011;6334;48.696;2.114;2023-06-24T08:10:39;6.70;;;3.93;;
12535;SDS011;6334;48.696;2.114;2023-06-24T08:13:10;4.63;;;3.93;;
12535;SDS011;6334;48.696;2.114;2023-06-24T08:15:41;5.70;;;4.03;;
12535;SDS011;6334;48.696;2.114;2023-06-24T08:18:11;4.80;;;4.10;;
12535;SDS011;6334;48.696;2.114;2023-06-24T08:20:42;5.03;;;4.07;;
12535;SDS011;6334;48.696;2.114;2023-06-24T08:23:12;6.17;;;4.30;;
12535;SDS011;6334;48.696;2.114;2023-06-24T08:25:43;12.00;;;4.63;;
12535;SDS011;6334;48.696;2.114;2023-06-24T08:28:13;5.20;;;4.20;;
12535;SDS011;6334;48.696;2.114;2023-06-24T08:30:44;4.63;;;4.03;;
12535;SDS011;6334;48.696;2.114;2023-06-24T08:33:14;5.40;;;4.40;;
12535;SDS011;6334;48.696;2.114;2023-06-24T08:35:45;5.00;;;4.50;;
12535;SDS011;6334;48.696;2.114;2023-06-24T08:38:15;4.63;;;4.10;;
12535;SDS011;6334;48.696;2.114;2023-06-24T08:40:46;6.03;;;4.70;;
12535;SDS011;6334;48.696;2.114;2023-06-24T08:43:16;4.57;;;4.10;;
12535;SDS011;6334;48.696;2.114;2023-06-24T08:45:46;4.87;;;4.03;;
12535;SDS011;6334;48.696;2.114;2023-06-24T08:48:18;4.30;;;3.90;;
12535;SDS011;6334;48.696;2.114;2023-06-24T08:50:50;5.00;;;4.00;;
12535;SDS011;6334;48.696;2.114;2023-06-24T08:53:20;6.77;;;4.23;;
12535;SDS011;6334;48.696;2.114;2023-06-24T08:55:50;7.07;;;4.83;;
12535;SDS011;6334;48.696;2.114;2023-06-24T08:58:20;7.07;;;4.50;;
12535;SDS011;6334;48.696;2.114;2023-06-24T09:00:51;4.77;;;4.17;;
12535;SDS011;6334;48.696;2.114;2023-06-24T09:03:21;5.00;;;4.50;;
12535;SDS011;6334;48.696;2.114;2023-06-24T09:05:52;7.37;;;4.77;;
12535;SDS011;6334;48.696;2.114;2023-06-24T09:08:22;6.50;;;4.40;;
12535;SDS011;6334;48.696;2.114;2023-06-24T09:10:53;5.47;;;4.27;;
12535;SDS011;6334;48.696;2.114;2023-06-24T09:13:35;4.60;;;4.10;;
12535;SDS011;6334;48.696;2.114;2023-06-24T09:16:11;5.40;;;4.60;;
12535;SDS011;6334;48.696;2.114;2023-06-24T09:18:41;6.33;;;4.37;;
12535;SDS011;6334;48.696;2.114;2023-06-24T09:21:11;5.60;;;4.90;;
12535;SDS011;6334;48.696;2.114;2023-06-24T09:23:42;5.07;;;4.47;;
12535;SDS011;6334;48.696;2.114;2023-06-24T09:26:12;5.80;;;4.50;;
12535;SDS011;6334;48.696;2.114;2023-06-24T09:28:47;5.43;;;4.93;;
12535;SDS011;6334;48.696;2.114;2023-06-24T09:31:13;7.00;;;4.53;;
12535;SDS011;6334;48.696;2.114;2023-06-24T09:33:44;5.70;;;4.73;;
12535;SDS011;6334;48.696;2.114;2023-06-24T09:36:14;6.30;;;5.10;;
12535;SDS011;6334;48.696;2.114;2023-06-24T09:38:45;5.27;;;4.50;;
12535;SDS011;6334;48.696;2.114;2023-06-24T09:41:15;5.03;;;4.37;;
12535;SDS011;6334;48.696;2.114;2023-06-24T09:43:46;6.73;;;4.93;;
12535;SDS011;6334;48.696;2.114;2023-06-24T09:46:16;7.20;;;5.07;;
12535;SDS011;6334;48.696;2.114;2023-06-24T09:48:47;5.37;;;4.87;;
12535;SDS011;6334;48.696;2.114;2023-06-24T09:51:17;8.13;;;4.83;;
12535;SDS011;6334;48.696;2.114;2023-06-24T09:53:48;5.10;;;4.60;;
12535;SDS011;6334;48.696;2.114;2023-06-24T09:56:18;7.90;;;5.37;;
12535;SDS011;6334;48.696;2.114;2023-06-24T09:58:49;6.37;;;4.57;;
12535;SDS011;6334;48.696;2.114;2023-06-24T10:01:19;16.97;;;9.40;;
12535;SDS011;6334;48.696;2.114;2023-06-24T10:03:49;9.47;;;6.00;;
12535;SDS011;6334;48.696;2.114;2023-06-24T10:06:20;6.10;;;5.00;;
12535;SDS011;6334;48.696;2.114;2023-06-24T10:08:50;7.30;;;5.20;;
12535;SDS011;6334;48.696;2.114;2023-06-24T10:11:21;6.93;;;5.00;;
12535;SDS011;6334;48.696;2.114;2023-06-24T10:13:52;7.87;;;5.40;;
12535;SDS011;6334;48.696;2.114;2023-06-24T10:16:22;7.97;;;5.47;;
12535;SDS011;6334;48.696;2.114;2023-06-24T10:18:52;6.67;;;4.97;;
12535;SDS011;6334;48.696;2.114;2023-06-24T10:21:24;6.70;;;4.67;;
12535;SDS011;6334;48.696;2.114;2023-06-24T10:23:53;6.30;;;5.07;;
12535;SDS011;6334;48.696;2.114;2023-06-24T10:26:27;11.33;;;5.93;;
12535;SDS011;6334;48.696;2.114;2023-06-24T10:36:54;5.70;;;4.70;;
12535;SDS011;6334;48.696;2.114;2023-06-24T10:39:36;5.13;;;4.63;;
12535;SDS011;6334;48.696;2.114;2023-06-24T10:42:39;5.57;;;4.93;;
12535;SDS011;6334;48.696;2.114;2023-06-24T10:44:56;5.63;;;4.77;;
12535;SDS011;6334;48.696;2.114;2023-06-24T10:47:26;5.57;;;4.93;;
12535;SDS011;6334;48.696;2.114;2023-06-24T10:49:57;5.90;;;5.00;;
12535;SDS011;6334;48.696;2.114;2023-06-24T10:52:27;4.97;;;4.30;;
12535;SDS011;6334;48.696;2.114;2023-06-24T10:54:58;5.37;;;4.60;;
12535;SDS011;6334;48.696;2.114;2023-06-24T10:57:28;5.27;;;4.67;;
12535;SDS011;6334;48.696;2.114;2023-06-24T10:59:58;6.53;;;4.80;;
12535;SDS011;6334;48.696;2.114;2023-06-24T11:02:30;5.70;;;4.97;;
12535;SDS011;6334;48.696;2.114;2023-06-24T11:05:01;7.37;;;5.13;;
12535;SDS011;6334;48.696;2.114;2023-06-24T11:07:32;6.73;;;5.03;;
12535;SDS011;6334;48.696;2.114;2023-06-24T11:10:03;5.87;;;5.10;;
12535;SDS011;6334;48.696;2.114;2023-06-24T11:12:35;9.50;;;5.07;;
12535;SDS011;6334;48.696;2.114;2023-06-24T11:15:03;5.83;;;5.23;;
12535;SDS011;6334;48.696;2.114;2023-06-24T11:17:33;6.80;;;5.13;;
12535;SDS011;6334;48.696;2.114;2023-06-24T11:20:10;5.43;;;4.90;;
12535;SDS011;6334;48.696;2.114;2023-06-24T11:22:40;5.60;;;5.00;;
12535;SDS011;6334;48.696;2.114;2023-06-24T11:25:17;5.93;;;4.67;;
12535;SDS011;6334;48.696;2.114;2023-06-24T11:27:47;5.80;;;4.70;;
12535;SDS011;6334;48.696;2.114;2023-06-24T11:30:17;5.50;;;4.87;;
12535;SDS011;6334;48.696;2.114;2023-06-24T11:32:47;6.10;;;4.90;;
12535;SDS011;6334;48.696;2.114;2023-06-24T11:35:18;5.37;;;4.87;;
12535;SDS011;6334;48.696;2.114;2023-06-24T11:37:48;6.57;;;4.90;;
12535;SDS011;6334;48.696;2.114;2023-06-24T11:40:19;5.60;;;5.00;;
12535;SDS011;6334;48.696;2.114;2023-06-24T11:42:49;7.87;;;4.83;;
12535;SDS011;6334;48.696;2.114;2023-06-24T11:45:20;5.03;;;4.53;;
12535;SDS011;6334;48.696;2.114;2023-06-24T11:47:50;4.67;;;4.17;;
12535;SDS011;6334;48.696;2.114;2023-06-24T11:50:25;5.93;;;4.90;;
12535;SDS011;6334;48.696;2.114;2023-06-24T11:52:51;6.73;;;4.87;;
12535;SDS011;6334;48.696;2.114;2023-06-24T11:55:23;5.13;;;4.60;;
12535;SDS011;6334;48.696;2.114;2023-06-24T12:00:29;5.87;;;4.77;;
12535;SDS011;6334;48.696;2.114;2023-06-24T12:03:00;5.47;;;4.87;;
12535;SDS011;6334;48.696;2.114;2023-06-24T12:05:32;6.17;;;4.77;;
12535;SDS011;6334;48.696;2.114;2023-06-24T12:10:33;7.07;;;4.83;;
12535;SDS011;6334;48.696;2.114;2023-06-24T12:13:03;6.90;;;5.00;;
12535;SDS011;6334;48.696;2.114;2023-06-24T12:15:34;4.97;;;4.50;;
12535;SDS011;6334;48.696;2.114;2023-06-24T12:18:04;8.80;;;5.17;;
12535;SDS011;6334;48.696;2.114;2023-06-24T12:20:35;5.43;;;4.90;;
12535;SDS011;6334;48.696;2.114;2023-06-24T12:23:05;5.63;;;4.77;;
12535;SDS011;6334;48.696;2.114;2023-06-24T12:25:35;8.37;;;5.33;;
12535;SDS011;6334;48.696;2.114;2023-06-24T12:28:06;6.20;;;5.20;;
12535;SDS011;6334;48.696;2.114;2023-06-24T12:30:36;6.00;;;4.77;;
12535;SDS011;6334;48.696;2.114;2023-06-24T12:33:07;5.57;;;4.83;;
12535;SDS011;6334;48.696;2.114;2023-06-24T12:35:37;5.60;;;5.07;;
12535;SDS011;6334;48.696;2.114;2023-06-24T12:38:08;6.93;;;5.13;;
12535;SDS011;6334;48.696;2.114;2023-06-24T12:40:38;5.90;;;5.10;;
12535;SDS011;6334;48.696;2.114;2023-06-24T12:43:09;5.47;;;4.57;;
12535;SDS011;6334;48.696;2.114;2023-06-24T12:45:39;5.27;;;4.67;;
12535;SDS011;6334;48.696;2.114;2023-06-24T12:48:10;5.03;;;4.53;;
12535;SDS011;6334;48.696;2.114;2023-06-24T12:50:40;6.80;;;4.83;;
12535;SDS011;6334;48.696;2.114;2023-06-24T12:53:10;5.40;;;4.90;;
12535;SDS011;6334;48.696;2.114;2023-06-24T12:55:42;6.33;;;4.73;;
12535;SDS011;6334;48.696;2.114;2023-06-24T12:58:18;6.60;;;5.23;;
12535;SDS011;6334;48.696;2.114;2023-06-24T13:00:46;6.97;;;5.40;;
12535;SDS011;6334;48.696;2.114;2023-06-24T13:03:16;5.90;;;4.90;;
12535;SDS011;6334;48.696;2.114;2023-06-24T13:05:47;6.23;;;5.20;;
12535;SDS011;6334;48.696;2.114;2023-06-24T13:08:17;6.50;;;4.57;;
12535;SDS011;6334;48.696;2.114;2023-06-24T13:10:47;5.80;;;4.97;;
12535;SDS011;6334;48.696;2.114;2023-06-24T13:13:18;5.43;;;4.73;;
12535;SDS011;6334;48.696;2.114;2023-06-24T13:15:48;6.90;;;5.07;;
12535;SDS011;6334;48.696;2.114;2023-06-24T13:18:19;5.43;;;4.73;;
12535;SDS011;6334;48.696;2.114;2023-06-24T13:20:49;6.23;;;5.53;;
12535;SDS011;6334;48.696;2.114;2023-06-24T13:23:20;6.90;;;4.93;;
12535;SDS011;6334;48.696;2.114;2023-06-24T13:25:50;5.97;;;5.10;;
12535;SDS011;6334;48.696;2.114;2023-06-24T13:28:21;5.50;;;4.93;;
12535;SDS011;6334;48.696;2.114;2023-06-24T13:30:52;7.43;;;5.00;;
12535;SDS011;6334;48.696;2.114;2023-06-24T13:33:22;7.70;;;5.00;;
12535;SDS011;6334;48.696;2.114;2023-06-24T13:35:52;5.83;;;4.73;;
12535;SDS011;6334;48.696;2.114;2023-06-24T13:38:22;5.90;;;5.30;;
12535;SDS011;6334;48.696;2.114;2023-06-24T13:40:53;5.23;;;4.73;;
12535;SDS011;6334;48.696;2.114;2023-06-24T13:43:23;5.90;;;5.03;;
12535;SDS011;6334;48.696;2.114;2023-06-24T13:45:54;6.93;;;4.77;;
12535;SDS011;6334;48.696;2.114;2023-06-24T13:48:24;6.10;;;5.00;;
12535;SDS011;6334;48.696;2.114;2023-06-24T13:50:55;5.63;;;5.03;;
12535;SDS011;6334;48.696;2.114;2023-06-24T13:53:25;6.40;;;5.10;;
12535;SDS011;6334;48.696;2.114;2023-06-24T13:55:57;7.83;;;4.97;;
12535;SDS011;6334;48.696;2.114;2023-06-24T13:58:27;5.70;;;4.63;;
12535;SDS011;6334;48.696;2.114;2023-06-24T14:00:58;6.43;;;5.33;;
12535;SDS011;6334;48.696;2.114;2023-06-24T14:03:28;4.90;;;4.50;;
12535;SDS011;6334;48.696;2.114;2023-06-24T14:06:00;8.97;;;5.47;;
12535;SDS011;6334;48.696;2.114;2023-06-24T14:08:32;7.03;;;5.27;;
12535;SDS011;6334;48.696;2.114;2023-06-24T14:11:03;5.30;;;4.80;;
12535;SDS011;6334;48.696;2.114;2023-06-24T14:13:34;7.50;;;5.20;;
12535;SDS011;6334;48.696;2.114;2023-06-24T14:16:04;7.40;;;5.00;;
12535;SDS011;6334;48.696;2.114;2023-06-24T14:18:34;5.40;;;4.90;;
12535;SDS011;6334;48.696;2.114;2023-06-24T14:21:05;8.17;;;5.43;;
12535;SDS011;6334;48.696;2.114;2023-06-24T14:23:35;6.27;;;5.20;;
12535;SDS011;6334;48.696;2.114;2023-06-24T14:26:06;5.53;;;5.00;;
12535;SDS011;6334;48.696;2.114;2023-06-24T14:28:36;5.73;;;5.13;;
12535;SDS011;6334;48.696;2.114;2023-06-24T14:31:07;5.23;;;4.73;;
12535;SDS011;6334;48.696;2.114;2023-06-24T14:33:37;6.20;;;5.07;;
12535;SDS011;6334;48.696;2.114;2023-06-24T14:36:08;7.90;;;5.30;;
12535;SDS011;6334;48.696;2.114;2023-06-24T14:38:38;6.00;;;5.00;;
12535;SDS011;6334;48.696;2.114;2023-06-24T14:41:09;5.03;;;4.53;;
12535;SDS011;6334;48.696;2.114;2023-06-24T14:43:39;6.77;;;5.50;;
12535;SDS011;6334;48.696;2.114;2023-06-24T14:46:10;7.80;;;5.40;;
12535;SDS011;6334;48.696;2.114;2023-06-24T14:48:40;6.40;;;5.40;;
12535;SDS011;6334;48.696;2.114;2023-06-24T14:51:11;6.20;;;5.43;;
12535;SDS011;6334;48.696;2.114;2023-06-24T14:53:43;6.87;;;5.50;;
12535;SDS011;6334;48.696;2.114;2023-06-24T14:56:14;7.17;;;5.63;;
12535;SDS011;6334;48.696;2.114;2023-06-24T14:58:44;6.53;;;5.50;;
12535;SDS011;6334;48.696;2.114;2023-06-24T15:01:15;5.67;;;4.70;;
12535;SDS011;6334;48.696;2.114;2023-06-24T15:03:45;6.07;;;5.43;;
12535;SDS011;6334;48.696;2.114;2023-06-24T15:06:16;6.90;;;5.33;;
12535;SDS011;6334;48.696;2.114;2023-06-24T15:08:46;8.27;;;5.07;;
12535;SDS011;6334;48.696;2.114;2023-06-24T15:11:16;6.57;;;4.93;;
12535;SDS011;6334;48.696;2.114;2023-06-24T15:13:47;8.97;;;5.37;;
12535;SDS011;6334;48.696;2.114;2023-06-24T15:16:17;5.53;;;4.93;;
12535;SDS011;6334;48.696;2.114;2023-06-24T15:18:48;6.07;;;5.30;;
12535;SDS011;6334;48.696;2.114;2023-06-24T15:21:18;6.37;;;5.03;;
12535;SDS011;6334;48.696;2.114;2023-06-24T15:23:49;6.70;;;5.40;;
12535;SDS011;6334;48.696;2.114;2023-06-24T15:26:19;7.27;;;5.27;;
12535;SDS011;6334;48.696;2.114;2023-06-24T15:28:50;5.67;;;5.07;;
12535;SDS011;6334;48.696;2.114;2023-06-24T15:31:20;6.43;;;5.40;;
12535;SDS011;6334;48.696;2.114;2023-06-24T15:33:51;5.93;;;5.13;;
12535;SDS011;6334;48.696;2.114;2023-06-24T15:36:21;7.23;;;5.33;;
12535;SDS011;6334;48.696;2.114;2023-06-24T15:38:52;9.37;;;5.47;;
12535;SDS011;6334;48.696;2.114;2023-06-24T15:41:22;7.13;;;5.30;;
12535;SDS011;6334;48.696;2.114;2023-06-24T15:43:52;6.97;;;5.57;;
12535;SDS011;6334;48.696;2.114;2023-06-24T15:46:23;5.80;;;5.00;;